Time;durP1;ratioP1;P1;durP2;ratioP2;P2;SDS_P1;SDS_P2;PMS_P1;PMS_P2;Temp;Humidity;BMP_temperature;BMP_pressure;BME280_temperature;BME280_humidity;BME280_pressure;Samples;Min_cycle;Max_cycle;Signal;HPM_P1;HPM_P2
2022/05/13 00:00:09;;;;;;;;;;;;;;;14.13;100.00;99797.70;1706872;83;20110;-70
2022/05/13 00:02:37;;;;;;;;;;;;;;;14.09;100.00;99793.67;1725062;83;20108;-73
2022/05/13 00:05:05;;;;;;;;;;;;;;;14.04;100.00;99791.58;1725018;83;20386;-72
2022/05/13 00:07:33;;;;;;;;;;;;;;;14.02;100.00;99799.09;1725068;83;20121;-73
2022/05/13 00:12:30;;;;;;;;;;;;;;;13.94;100.00;99801.95;1666880;85;20110;-73
2022/05/13 00:14:57;;;;;;;;;;;;;;;13.89;100.00;99800.35;1667015;86;20145;-74
2022/05/13 00:17:24;;;;;;;;;;;;;;;13.85;100.00;99805.88;1667004;86;20105;-74
2022/05/13 00:19:51;;;;;;;;;;;;;;;13.81;100.00;99808.64;1667222;86;20118;-75
2022/05/13 00:22:19;;;;;;;;;;;;;;;13.75;100.00;99806.20;1667042;86;20154;-73
2022/05/13 00:24:46;;;;;;;;;;;;;;;13.70;100.00;99786.94;1667345;86;20114;-75
2022/05/13 00:27:12;;;;;;;;;;;;;;;13.67;100.00;99792.27;1667173;86;20102;-73
2022/05/13 00:29:40;;;;;;;;;;;;;;;13.64;100.00;99798.08;1667083;86;20118;-74
2022/05/13 00:32:09;;;;;;;;;;;;;;;13.61;100.00;99791.67;1667075;86;20137;-73
2022/05/13 00:34:36;;;;;;;;;;;;;;;13.57;100.00;99786.85;1667301;86;20492;-75
2022/05/13 00:37:03;;;;;;;;;;;;;;;13.54;100.00;99781.80;1667293;86;20118;-74
2022/05/13 00:39:31;;;;;;;;;;;;;;;13.49;100.00;99782.38;1666922;86;20130;-73
2022/05/13 00:42:08;;;;;;;;;;;;;;;13.46;100.00;99779.55;1666796;86;20121;-72
2022/05/13 00:44:36;;;;;;;;;;;;;;;13.43;100.00;99781.82;1667209;86;20105;-74
2022/05/13 00:47:04;;;;;;;;;;;;;;;13.40;100.00;99790.35;1667333;85;20410;-72
2022/05/13 00:49:32;;;;;;;;;;;;;;;13.35;100.00;99777.38;1665580;85;20105;-71
2022/05/13 00:52:00;;;;;;;;;;;;;;;13.33;100.00;99776.70;1664557;86;20165;-73
2022/05/13 00:54:27;;;;;;;;;;;;;;;13.31;100.00;99778.78;1648075;86;20133;-74
2022/05/13 00:56:54;;;;;;;;;;;;;;;13.30;100.00;99778.45;1674461;86;20117;-72
2022/05/13 00:59:22;;;;;;;;;;;;;;;13.29;100.00;99784.38;1670545;86;20138;-71
2022/05/13 01:01:49;;;;;;;;;;;;;;;13.27;100.00;99789.69;1670317;86;20144;-73
2022/05/13 01:04:17;;;;;;;;;;;;;;;13.25;100.00;99779.55;1670545;86;20116;-74
2022/05/13 01:06:49;;;;;;;;;;;;;;;13.23;100.00;99776.19;1648090;86;20093;-75
2022/05/13 01:09:17;;;;;;;;;;;;;;;13.21;100.00;99772.31;1590179;88;20417;-71
2022/05/13 01:11:45;;;;;;;;;;;;;;;13.19;100.00;99763.53;1610430;89;20123;-74
2022/05/13 01:14:15;;;;;;;;;;;;;;;13.17;100.00;99754.71;1610421;89;20122;-74
2022/05/13 01:19:28;;;;;;;;;;;;;;;13.13;100.00;99742.57;1610562;89;20135;-71
2022/05/13 01:21:58;;;;;;;;;;;;;;;13.09;100.00;99740.77;1610150;89;20168;-73
2022/05/13 01:24:25;;;;;;;;;;;;;;;13.06;100.00;99730.81;1610586;89;20111;-73
2022/05/13 01:26:52;;;;;;;;;;;;;;;13.04;100.00;99722.86;1610313;89;20153;-71
2022/05/13 01:29:19;;;;;;;;;;;;;;;13.01;100.00;99716.98;1610471;89;20166;-71
2022/05/13 01:31:46;;;;;;;;;;;;;;;12.99;100.00;99713.11;1597176;89;20117;-73
2022/05/13 01:34:13;;;;;;;;;;;;;;;12.98;100.00;99697.88;1585775;91;20117;-74
2022/05/13 01:36:40;;;;;;;;;;;;;;;12.96;100.00;99708.09;1585375;91;20124;-73
2022/05/13 01:39:07;;;;;;;;;;;;;;;12.97;100.00;99719.25;1585792;91;20124;-72
2022/05/13 01:41:34;;;;;;;;;;;;;;;12.97;100.00;99734.18;1585515;89;20438;-73
2022/05/13 01:44:01;;;;;;;;;;;;;;;12.97;100.00;99731.47;1585701;91;20141;-75
2022/05/13 01:46:28;;;;;;;;;;;;;;;12.97;100.00;99739.61;1585393;91;20155;-73
2022/05/13 01:48:55;;;;;;;;;;;;;;;12.97;100.00;99742.31;1585459;91;20109;-73
2022/05/13 01:51:22;;;;;;;;;;;;;;;12.95;100.00;99754.42;1565118;91;20109;-74
2022/05/13 01:53:50;;;;;;;;;;;;;;;12.92;100.00;99755.63;1585390;89;20175;-73
2022/05/13 01:56:16;;;;;;;;;;;;;;;12.91;100.00;99745.30;1585584;91;20156;-72
2022/05/13 01:58:43;;;;;;;;;;;;;;;12.89;100.00;99737.88;1585487;91;20113;-74
2022/05/13 02:01:10;;;;;;;;;;;;;;;12.87;100.00;99732.30;1585764;91;20146;-73
2022/05/13 02:03:46;;;;;;;;;;;;;;;12.83;100.00;99728.30;1585671;91;20164;-71
2022/05/13 02:06:24;;;;;;;;;;;;;;;12.80;100.00;99711.91;1650044;84;20139;-74
2022/05/13 02:08:53;;;;;;;;;;;;;;;12.80;100.00;99705.13;1696840;85;20107;-74
2022/05/13 02:11:20;;;;;;;;;;;;;;;12.78;100.00;99697.67;1696694;85;20107;-73
2022/05/13 02:13:47;;;;;;;;;;;;;;;12.76;100.00;99669.90;1696559;84;20151;-73
2022/05/13 02:16:13;;;;;;;;;;;;;;;12.75;100.00;99661.95;1696673;85;20100;-73
2022/05/13 02:18:40;;;;;;;;;;;;;;;12.73;100.00;99662.17;1696633;85;20099;-75
2022/05/13 02:21:08;;;;;;;;;;;;;;;12.71;100.00;99666.43;1728347;83;20149;-73
2022/05/13 02:23:35;;;;;;;;;;;;;;;12.70;100.00;99663.91;1728795;83;20398;-74
2022/05/13 02:26:05;;;;;;;;;;;;;;;12.69;100.00;99663.05;1728853;81;20125;-74
2022/05/13 02:28:32;;;;;;;;;;;;;;;12.70;100.00;99660.67;1728810;83;20142;-73
2022/05/13 02:30:59;;;;;;;;;;;;;;;12.72;100.00;99659.13;1729004;83;20136;-73
2022/05/13 02:33:27;;;;;;;;;;;;;;;12.72;100.00;99664.02;1730183;83;20432;-74
2022/05/13 02:35:54;;;;;;;;;;;;;;;12.72;100.00;99667.27;1730344;83;20507;-74
2022/05/13 02:38:20;;;;;;;;;;;;;;;12.72;100.00;99665.37;1730608;83;20145;-76
2022/05/13 02:43:34;;;;;;;;;;;;;;;12.72;100.00;99658.59;1730387;83;20120;-74
2022/05/13 02:46:01;;;;;;;;;;;;;;;12.73;100.00;99642.66;1730569;83;20140;-74
2022/05/13 02:48:28;;;;;;;;;;;;;;;12.73;100.00;99639.94;1730270;83;20120;-74
2022/05/13 02:50:54;;;;;;;;;;;;;;;12.75;100.00;99630.26;1730306;83;20135;-73
2022/05/13 02:53:21;;;;;;;;;;;;;;;12.77;100.00;99634.14;1730252;83;20132;-74
2022/05/13 02:55:48;;;;;;;;;;;;;;;12.77;100.00;99636.84;1730318;83;20132;-72
2022/05/13 02:58:15;;;;;;;;;;;;;;;12.78;100.00;99645.29;1731743;83;20123;-73
2022/05/13 03:00:42;;;;;;;;;;;;;;;12.82;100.00;99659.64;1731079;83;20152;-72
2022/05/13 03:03:11;;;;;;;;;;;;;;;12.85;100.00;99663.30;1730659;83;20124;-73
2022/05/13 03:05:38;;;;;;;;;;;;;;;12.86;100.00;99669.59;1730334;83;20127;-73
2022/05/13 03:08:07;;;;;;;;;;;;;;;12.84;100.00;99677.08;1730426;83;20132;-73
2022/05/13 03:10:36;;;;;;;;;;;;;;;12.83;100.00;99675.39;1730408;83;20436;-72
2022/05/13 03:13:05;;;;;;;;;;;;;;;12.82;100.00;99683.20;1730147;83;20432;-72
2022/05/13 03:15:34;;;;;;;;;;;;;;;12.82;100.00;99685.91;1730470;83;20412;-74
2022/05/13 03:18:01;;;;;;;;;;;;;;;12.84;100.00;99680.63;1730316;83;20135;-73
2022/05/13 03:20:28;;;;;;;;;;;;;;;12.84;100.00;99675.73;1730549;83;20144;-73
2022/05/13 03:22:55;;;;;;;;;;;;;;;12.84;100.00;99669.77;1730462;83;20132;-73
2022/05/13 03:25:22;;;;;;;;;;;;;;;12.85;100.00;99674.15;1730738;82;20152;-72
2022/05/13 03:27:49;;;;;;;;;;;;;;;12.88;100.00;99671.58;1730546;83;20163;-74
2022/05/13 03:30:16;;;;;;;;;;;;;;;12.90;100.00;99668.98;1730862;83;20131;-73
2022/05/13 03:32:43;;;;;;;;;;;;;;;12.94;100.00;99673.50;1725511;81;20101;-72
2022/05/13 03:35:11;;;;;;;;;;;;;;;12.97;100.00;99670.92;1725479;83;20101;-73
2022/05/13 03:37:38;;;;;;;;;;;;;;;12.98;100.00;99669.38;1725082;82;20128;-73
2022/05/13 03:40:05;;;;;;;;;;;;;;;12.99;100.00;99676.47;1724723;83;20113;-73
2022/05/13 03:42:32;;;;;;;;;;;;;;;12.99;100.00;99672.40;1725071;82;20164;-71
2022/05/13 03:44:59;;;;;;;;;;;;;;;13.01;100.00;99671.67;1725260;82;20133;-72
2022/05/13 03:47:26;;;;;;;;;;;;;;;13.04;100.00;99678.61;1725008;83;20101;-73
2022/05/13 03:49:52;;;;;;;;;;;;;;;13.09;100.00;99680.22;1725055;83;20125;-74
2022/05/13 03:52:20;;;;;;;;;;;;;;;13.11;100.00;99665.40;1727233;83;20089;-73
2022/05/13 03:54:47;;;;;;;;;;;;;;;13.15;100.00;99668.56;1727495;83;20148;-73
2022/05/13 03:57:14;;;;;;;;;;;;;;;13.22;100.00;99667.26;1727821;83;20121;-73
2022/05/13 03:59:42;;;;;;;;;;;;;;;13.27;100.00;99666.16;1727191;83;20117;-74
2022/05/13 04:02:09;;;;;;;;;;;;;;;13.31;100.00;99666.09;1727423;83;20130;-73
2022/05/13 04:10:08;;;;;;;;;;;;;;;13.55;100.00;99677.56;1727188;83;20153;-72
2022/05/13 04:18:05;;;;;;;;;;;;;;;13.91;100.00;99684.65;1727473;82;20378;-74
2022/05/13 04:20:32;;;;;;;;;;;;;;;14.08;100.00;99694.64;1727254;83;20104;-74
2022/05/13 04:23:00;;;;;;;;;;;;;;;14.24;100.00;99707.38;1727359;82;20105;-75
2022/05/13 04:25:26;;;;;;;;;;;;;;;14.42;100.00;99710.89;1727344;83;20245;-71
2022/05/13 04:27:53;;;;;;;;;;;;;;;14.61;100.00;99722.09;1727385;83;20097;-75
2022/05/13 04:30:20;;;;;;;;;;;;;;;14.76;100.00;99721.38;1727205;83;20097;-74
2022/05/13 04:32:46;;;;;;;;;;;;;;;14.91;100.00;99720.34;1727273;83;20124;-73
2022/05/13 04:35:13;;;;;;;;;;;;;;;15.04;100.00;99723.09;1727281;82;20140;-73
2022/05/13 04:37:41;;;;;;;;;;;;;;;15.15;100.00;99730.63;1726968;82;20109;-73
2022/05/13 04:40:08;;;;;;;;;;;;;;;15.25;100.00;99738.94;1726813;82;20180;-73
2022/05/13 04:42:51;;;;;;;;;;;;;;;15.32;100.00;99742.50;1725732;83;20300;-72
2022/05/13 04:45:25;;;;;;;;;;;;;;;15.43;100.00;99742.39;1726701;83;20145;-71
2022/05/13 04:50:42;;;;;;;;;;;;;;;15.58;100.00;99751.16;1713396;83;20111;-74
2022/05/13 04:53:09;;;;;;;;;;;;;;;15.64;100.00;99756.33;1700179;84;20107;-75
2022/05/13 04:55:36;;;;;;;;;;;;;;;15.75;100.00;99755.17;1700246;84;20395;-73
2022/05/13 04:58:04;;;;;;;;;;;;;;;15.91;100.00;99760.70;1700153;84;20107;-73
2022/05/13 05:00:31;;;;;;;;;;;;;;;16.06;100.00;99755.52;1700267;84;20120;-72
2022/05/13 05:02:58;;;;;;;;;;;;;;;16.21;100.00;99756.11;1699925;84;20148;-72
2022/05/13 05:05:25;;;;;;;;;;;;;;;16.37;100.00;99756.16;1699935;84;20159;-73
2022/05/13 05:07:52;;;;;;;;;;;;;;;16.55;100.00;99767.73;1670290;84;20107;-71
2022/05/13 05:10:21;;;;;;;;;;;;;;;16.72;100.00;99771.34;1700270;84;20407;-70
2022/05/13 05:12:49;;;;;;;;;;;;;;;16.93;100.00;99791.53;1700355;84;20151;-72
2022/05/13 05:15:16;;;;;;;;;;;;;;;17.06;100.00;99791.44;1700282;84;20111;-72
2022/05/13 05:17:43;;;;;;;;;;;;;;;17.21;100.00;99798.48;1700230;84;20099;-72
2022/05/13 05:20:11;;;;;;;;;;;;;;;17.40;100.00;99789.30;1700219;84;20095;-73
2022/05/13 05:22:38;;;;;;;;;;;;;;;17.57;100.00;99788.77;1700355;84;20107;-72
2022/05/13 05:25:06;;;;;;;;;;;;;;;17.65;100.00;99803.52;1700402;84;20135;-72
2022/05/13 05:27:35;;;;;;;;;;;;;;;17.72;100.00;99804.29;1700104;84;20130;-70
2022/05/13 05:30:03;;;;;;;;;;;;;;;17.76;100.00;99808.27;1700137;84;20095;-72
2022/05/13 05:32:30;;;;;;;;;;;;;;;17.73;100.00;99806.52;1720892;83;20129;-72
2022/05/13 05:34:58;;;;;;;;;;;;;;;17.70;100.00;99814.62;1723739;83;20125;-73
2022/05/13 05:37:25;;;;;;;;;;;;;;;17.76;100.00;99823.31;1724982;83;20098;-71
2022/05/13 05:39:52;;;;;;;;;;;;;;;17.87;100.00;99821.77;1723357;83;20105;-72
2022/05/13 05:42:19;;;;;;;;;;;;;;;17.99;100.00;99821.89;1724734;83;20113;-73
2022/05/13 05:44:45;;;;;;;;;;;;;;;18.10;100.00;99827.97;1723775;82;20101;-73
2022/05/13 05:47:12;;;;;;;;;;;;;;;18.18;100.00;99833.67;1723358;83;20426;-72
2022/05/13 05:49:39;;;;;;;;;;;;;;;18.16;100.00;99838.00;1723897;82;20125;-73
2022/05/13 05:52:09;;;;;;;;;;;;;;;18.16;100.00;99838.54;1732556;82;20128;-72
2022/05/13 05:57:22;;;;;;;;;;;;;;;18.37;100.00;99824.95;1734213;83;20104;-72
2022/05/13 05:59:49;;;;;;;;;;;;;;;18.61;100.00;99830.06;1734121;83;20116;-73
2022/05/13 06:02:16;;;;;;;;;;;;;;;18.76;100.00;99828.28;1734065;83;20136;-73
2022/05/13 06:04:42;;;;;;;;;;;;;;;18.89;100.00;99833.64;1734021;81;20101;-74
2022/05/13 06:07:15;;;;;;;;;;;;;;;19.08;100.00;99838.52;1734689;83;20141;-71
2022/05/13 06:09:42;;;;;;;;;;;;;;;19.49;100.00;99846.46;1734508;83;20097;-73
2022/05/13 06:12:11;;;;;;;;;;;;;;;19.84;100.00;99847.11;1735106;83;20581;-73
2022/05/13 06:14:39;;;;;;;;;;;;;;;20.12;100.00;99855.73;1734990;83;20144;-70
2022/05/13 06:17:06;;;;;;;;;;;;;;;20.38;100.00;99860.73;1734802;83;20160;-68
2022/05/13 06:19:33;;;;;;;;;;;;;;;20.51;100.00;99872.00;1734853;83;20128;-71
2022/05/13 06:22:00;;;;;;;;;;;;;;;20.49;100.00;99870.86;1734873;83;20115;-70
2022/05/13 06:24:26;;;;;;;;;;;;;;;20.59;100.00;99876.27;1734644;83;20109;-70
2022/05/13 06:26:54;;;;;;;;;;;;;;;20.65;100.00;99884.42;1734274;83;20179;-68
2022/05/13 06:29:22;;;;;;;;;;;;;;;20.64;100.00;99880.00;1746970;81;20188;-71
2022/05/13 06:31:49;;;;;;;;;;;;;;;20.57;100.00;99883.38;1743957;82;20121;-72
2022/05/13 06:34:16;;;;;;;;;;;;;;;20.54;100.00;99885.26;1746569;82;20129;-72
2022/05/13 06:36:43;;;;;;;;;;;;;;;20.63;100.00;99886.58;1755588;82;20122;-70
2022/05/13 06:39:09;;;;;;;;;;;;;;;20.78;100.00;99886.62;1761877;82;20114;-71
2022/05/13 06:41:37;;;;;;;;;;;;;;;20.92;100.00;99889.39;1759999;82;20121;-69
2022/05/13 06:44:05;;;;;;;;;;;;;;;21.15;100.00;99886.28;1759652;82;20116;-70
2022/05/13 06:46:35;;;;;;;;;;;;;;;21.24;100.00;99888.92;1760255;81;20162;-71
2022/05/13 06:49:01;;;;;;;;;;;;;;;21.05;100.00;99891.02;1759961;80;20129;-71
2022/05/13 06:51:28;;;;;;;;;;;;;;;20.98;100.00;99882.93;1759674;80;20437;-70
2022/05/13 06:53:55;;;;;;;;;;;;;;;20.99;100.00;99884.58;1759958;81;20157;-71
2022/05/13 06:56:22;;;;;;;;;;;;;;;20.99;100.00;99881.01;1759974;81;20418;-70
2022/05/13 06:58:49;;;;;;;;;;;;;;;21.15;100.00;99884.91;1760005;81;20137;-71
2022/05/13 07:01:17;;;;;;;;;;;;;;;21.48;100.00;99886.95;1760225;82;20405;-71
2022/05/13 07:03:44;;;;;;;;;;;;;;;21.98;100.00;99886.16;1760043;82;20410;-71
2022/05/13 07:06:11;;;;;;;;;;;;;;;22.48;100.00;99878.95;1759994;81;20133;-71
2022/05/13 07:08:39;;;;;;;;;;;;;;;22.89;100.00;99885.01;1759619;82;20133;-72
2022/05/13 07:11:07;;;;;;;;;;;;;;;23.21;100.00;99887.63;1738916;82;20118;-71
2022/05/13 07:13:35;;;;;;;;;;;;;;;23.36;100.00;99896.09;1759815;82;20130;-73
2022/05/13 07:16:02;;;;;;;;;;;;;;;23.24;100.00;99898.98;1760149;80;20145;-71
2022/05/13 07:18:29;;;;;;;;;;;;;;;23.16;100.00;99899.98;1759913;82;20441;-75
2022/05/13 07:20:56;;;;;;;;;;;;;;;23.31;100.00;99896.02;1759515;81;20160;-72
2022/05/13 07:23:22;;;;;;;;;;;;;;;23.51;100.00;99906.44;1759103;81;20169;-72
2022/05/13 07:25:50;;;;;;;;;;;;;;;23.73;100.00;99900.88;1759240;81;20157;-73
2022/05/13 07:28:16;;;;;;;;;;;;;;;23.91;100.00;99894.16;1758578;81;20160;-70
2022/05/13 07:30:45;;;;;;;;;;;;;;;24.04;100.00;99908.06;1755941;82;20149;-72
2022/05/13 07:33:13;;;;;;;;;;;;;;;24.23;100.00;99899.66;1729069;83;20176;-70
2022/05/13 07:35:40;;;;;;;;;;;;;;;24.60;100.00;99901.59;1729107;83;20160;-73
2022/05/13 07:38:07;;;;;;;;;;;;;;;24.90;100.00;99902.86;1729199;83;20172;-72
2022/05/13 07:43:22;;;;;;;;;;;;;;;25.48;100.00;99899.20;1729389;83;20174;-73
2022/05/13 07:45:49;;;;;;;;;;;;;;;25.27;99.73;99904.70;1709090;83;20123;-71
2022/05/13 07:48:15;;;;;;;;;;;;;;;25.23;100.00;99910.44;1728822;83;20132;-73
2022/05/13 07:50:43;;;;;;;;;;;;;;;25.41;100.00;99909.17;1729087;82;20132;-72
2022/05/13 07:53:10;;;;;;;;;;;;;;;25.60;100.00;99906.70;1719027;83;20413;-73
2022/05/13 07:55:37;;;;;;;;;;;;;;;25.86;97.45;99899.82;1719022;83;20200;-72
2022/05/13 07:58:05;;;;;;;;;;;;;;;25.98;97.81;99907.33;1719496;83;20152;-73
2022/05/13 08:00:33;;;;;;;;;;;;;;;26.20;95.20;99913.97;1719293;83;20153;-73
2022/05/13 08:03:03;;;;;;;;;;;;;;;26.26;95.38;99904.55;1718522;83;20160;-72
2022/05/13 08:05:33;;;;;;;;;;;;;;;26.39;93.07;99906.48;1718995;83;20155;-72
2022/05/13 08:08:05;;;;;;;;;;;;;;;26.42;93.45;99898.97;1715353;84;20129;-72
2022/05/13 08:10:31;;;;;;;;;;;;;;;26.47;92.54;99897.05;1673754;85;20428;-73
2022/05/13 08:12:58;;;;;;;;;;;;;;;26.46;93.49;99891.21;1659904;86;20114;-74
2022/05/13 08:15:26;;;;;;;;;;;;;;;26.56;92.79;99886.75;1685378;85;20163;-72
2022/05/13 08:17:53;;;;;;;;;;;;;;;26.69;93.04;99898.11;1685433;85;20124;-71
2022/05/13 08:20:20;;;;;;;;;;;;;;;26.83;93.38;99887.83;1686026;84;20096;-72
2022/05/13 08:22:47;;;;;;;;;;;;;;;27.09;90.55;99884.36;1686055;85;20148;-73
2022/05/13 08:25:14;;;;;;;;;;;;;;;27.29;86.48;99882.09;1686035;85;20107;-74
2022/05/13 08:27:42;;;;;;;;;;;;;;;27.22;79.95;99879.59;1687877;85;20103;-73
2022/05/13 08:30:10;;;;;;;;;;;;;;;26.98;80.48;99874.44;1687042;85;20207;-69
2022/05/13 08:32:38;;;;;;;;;;;;;;;26.82;80.69;99872.28;1682153;85;20127;-70
2022/05/13 08:35:05;;;;;;;;;;;;;;;26.80;82.92;99875.90;1661128;86;20119;-72
2022/05/13 08:37:34;;;;;;;;;;;;;;;26.83;81.72;99872.57;1642658;87;20116;-73
2022/05/13 08:40:01;;;;;;;;;;;;;;;26.58;81.71;99867.88;1653867;86;20118;-73
2022/05/13 08:42:35;;;;;;;;;;;;;;;26.53;84.72;99864.02;1642572;87;20156;-74
2022/05/13 08:45:03;;;;;;;;;;;;;;;26.68;85.23;99865.97;1652808;86;20136;-71
2022/05/13 08:47:36;;;;;;;;;;;;;;;26.78;87.03;99869.25;1638515;88;20108;-74
2022/05/13 08:50:09;;;;;;;;;;;;;;;27.02;82.68;99869.44;1658286;86;20465;-72
2022/05/13 08:53:06;;;;;;;;;;;;;;;27.04;78.11;99878.86;1573623;91;20291;-71
2022/05/13 08:55:42;;;;;;;;;;;;;;;26.97;74.37;99875.00;1572034;91;20133;-74
2022/05/13 08:58:14;;;;;;;;;;;;;;;26.88;77.40;99879.48;1572031;91;20408;-70
2022/05/13 09:00:43;;;;;;;;;;;;;;;27.02;77.46;99874.13;1572237;91;20120;-72
2022/05/13 09:03:24;;;;;;;;;;;;;;;27.13;76.82;99875.76;1571905;91;22676;-73
2022/05/13 09:05:57;;;;;;;;;;;;;;;27.07;78.50;99874.96;1572097;91;20114;-70
2022/05/13 09:08:24;;;;;;;;;;;;;;;27.16;75.81;99875.73;1572343;91;20120;-72
2022/05/13 09:11:28;;;;;;;;;;;;;;;26.90;76.29;99886.40;1572066;90;20185;-71
2022/05/13 09:13:59;;;;;;;;;;;;;;;26.81;78.96;99880.34;1587911;90;20435;-69
2022/05/13 09:16:44;;;;;;;;;;;;;;;26.85;79.00;99870.34;1599443;90;20123;-75
2022/05/13 09:19:15;;;;;;;;;;;;;;;26.95;78.64;99877.23;1599753;90;20462;-71
2022/05/13 09:21:43;;;;;;;;;;;;;;;27.05;79.03;99879.12;1599717;90;20443;-72
2022/05/13 09:24:11;;;;;;;;;;;;;;;27.44;80.02;99878.37;1599131;90;20157;-72
2022/05/13 09:26:38;;;;;;;;;;;;;;;27.74;75.38;99873.73;1599163;90;20959;-74
2022/05/13 09:29:07;;;;;;;;;;;;;;;27.74;74.00;99877.33;1619179;82;20418;-72
2022/05/13 09:31:39;;;;;;;;;;;;;;;27.61;75.63;99873.84;1760166;82;20158;-73
2022/05/13 09:34:34;;;;;;;;;;;;;;;27.80;76.68;99883.14;1727648;82;20133;-72
2022/05/13 09:37:04;;;;;;;;;;;;;;;27.91;75.23;99873.37;1737818;82;20125;-72
2022/05/13 09:39:34;;;;;;;;;;;;;;;27.42;73.26;99863.39;1660941;86;20117;-72
2022/05/13 09:42:26;;;;;;;;;;;;;;;27.01;76.67;99866.38;1618939;87;20497;-71
2022/05/13 09:45:19;;;;;;;;;;;;;;;26.89;80.47;99869.47;1618868;88;20192;-72
2022/05/13 09:47:48;;;;;;;;;;;;;;;26.74;79.39;99868.70;1619929;88;20139;-73
2022/05/13 09:50:29;;;;;;;;;;;;;;;26.50;82.18;99864.58;1605758;89;20177;-71
2022/05/13 09:53:08;;;;;;;;;;;;;;;26.30;82.53;99866.84;1590458;89;20158;-72
2022/05/13 09:55:39;;;;;;;;;;;;;;;25.97;85.08;99870.21;1580922;91;20169;-71
2022/05/13 09:58:13;;;;;;;;;;;;;;;25.85;88.47;99869.92;1580655;91;20145;-72
2022/05/13 10:00:40;;;;;;;;;;;;;;;25.95;89.35;99860.23;1578375;91;20113;-72
2022/05/13 10:03:21;;;;;;;;;;;;;;;26.06;87.54;99867.16;1559792;91;20172;-72
2022/05/13 10:06:06;;;;;;;;;;;;;;;26.07;85.60;99861.34;1581259;91;20136;-72
2022/05/13 10:08:34;;;;;;;;;;;;;;;26.17;85.32;99859.66;1585397;89;20154;-74
2022/05/13 10:13:59;;;;;;;;;;;;;;;26.96;85.06;99846.97;1616510;89;20145;-73
2022/05/13 10:16:42;;;;;;;;;;;;;;;27.44;82.92;99846.45;1616426;89;20114;-72
2022/05/13 10:19:16;;;;;;;;;;;;;;;27.72;77.64;99846.81;1618560;89;20110;-69
2022/05/13 10:22:05;;;;;;;;;;;;;;;27.68;77.72;99848.52;1616156;89;20418;-72
2022/05/13 10:24:50;;;;;;;;;;;;;;;27.35;74.60;99836.52;1616260;89;20143;-70
2022/05/13 10:27:23;;;;;;;;;;;;;;;27.09;77.33;99836.66;1616323;89;20449;-73
2022/05/13 10:29:51;;;;;;;;;;;;;;;27.07;80.82;99849.14;1610319;89;20122;-69
2022/05/13 10:32:21;;;;;;;;;;;;;;;27.21;83.62;99849.34;1616687;88;20186;-70
2022/05/13 10:34:50;;;;;;;;;;;;;;;27.38;81.33;99847.05;1594160;89;20218;-70
2022/05/13 10:37:22;;;;;;;;;;;;;;;27.42;83.10;99844.53;1612083;89;20174;-70
2022/05/13 10:39:52;;;;;;;;;;;;;;;27.58;82.38;99848.84;1646272;86;20145;-70
2022/05/13 10:42:28;;;;;;;;;;;;;;;27.55;82.84;99843.05;1674830;85;20115;-71
2022/05/13 10:45:05;;;;;;;;;;;;;;;27.25;84.19;99848.50;1691204;85;20091;-70
2022/05/13 10:47:54;;;;;;;;;;;;;;;27.09;86.94;99860.23;1697172;85;20708;-71
2022/05/13 10:50:25;;;;;;;;;;;;;;;26.92;88.94;99850.63;1697518;85;20115;-73
2022/05/13 10:53:04;;;;;;;;;;;;;;;26.84;93.21;99857.56;1652879;86;20174;-70
2022/05/13 10:56:08;;;;;;;;;;;;;;;26.81;94.37;99844.30;1652908;86;20182;-72
2022/05/13 10:59:10;;;;;;;;;;;;;;;26.78;95.74;99844.84;1633394;88;20109;-71
2022/05/13 11:02:02;;;;;;;;;;;;;;;26.69;95.54;99846.81;1633099;88;20147;-71
2022/05/13 11:04:53;;;;;;;;;;;;;;;26.32;97.75;99847.17;1633497;88;20140;-68
2022/05/13 11:07:36;;;;;;;;;;;;;;;26.28;94.78;99852.45;1633138;88;20437;-71
2022/05/13 11:10:16;;;;;;;;;;;;;;;26.38;94.21;99849.37;1633342;88;20499;-73
2022/05/13 11:13:02;;;;;;;;;;;;;;;26.57;96.22;99846.83;1630370;88;20172;-72
2022/05/13 11:15:47;;;;;;;;;;;;;;;26.88;96.88;99842.04;1633423;88;20150;-70
2022/05/13 11:18:29;;;;;;;;;;;;;;;27.43;94.08;99849.80;1633312;88;20417;-70
2022/05/13 11:20:59;;;;;;;;;;;;;;;27.82;88.47;99837.83;1633332;88;20148;-75
2022/05/13 11:25:54;;;;;;;;;;;;;;;28.08;87.70;99845.14;1633417;88;20129;-72
2022/05/13 11:26:29;;;;;;;;;;;;;;;28.29;87.36;99839.63;1630485;88;20186;-70
2022/05/13 11:29:12;;;;;;;;;;;;;;;28.63;84.74;99837.33;1633484;88;20108;-70
2022/05/13 11:31:49;;;;;;;;;;;;;;;28.72;83.63;99834.73;1625647;87;20095;-69
2022/05/13 11:34:28;;;;;;;;;;;;;;;28.67;82.25;99842.59;1587782;90;20429;-67
2022/05/13 11:37:02;;;;;;;;;;;;;;;28.36;79.80;99849.84;1590698;90;20414;-69
2022/05/13 11:39:53;;;;;;;;;;;;;;;28.01;79.30;99850.48;1590470;90;20442;-70
2022/05/13 11:45:59;;;;;;;;;;;;;;;28.10;79.50;99849.84;1557288;92;20154;-70
2022/05/13 11:48:28;;;;;;;;;;;;;;;28.11;72.63;99850.94;1557535;92;20470;-68
2022/05/13 11:51:15;;;;;;;;;;;;;;;28.21;71.94;99834.73;1528533;92;20151;-73
2022/05/13 11:53:48;;;;;;;;;;;;;;;28.35;70.37;99837.66;1538556;93;20154;-72
2022/05/13 11:56:21;;;;;;;;;;;;;;;28.54;67.04;99834.95;1513862;95;20166;-71
2022/05/13 11:58:56;;;;;;;;;;;;;;;28.67;63.75;99849.55;1554837;92;20272;-70
2022/05/13 12:01:38;;;;;;;;;;;;;;;28.79;61.60;99843.54;1557849;92;20147;-68
2022/05/13 12:04:18;;;;;;;;;;;;;;;28.65;59.39;99851.80;1557610;92;20124;-70
2022/05/13 12:06:54;;;;;;;;;;;;;;;28.54;59.42;99846.92;1526026;94;20124;-69
2022/05/13 12:09:42;;;;;;;;;;;;;;;28.70;59.40;99843.94;1540139;92;20122;-67
2022/05/13 12:12:12;;;;;;;;;;;;;;;28.91;55.67;99847.30;1564157;89;20155;-68
2022/05/13 12:14:52;;;;;;;;;;;;;;;29.11;53.05;99842.02;1619284;87;20147;-69
2022/05/13 12:17:41;;;;;;;;;;;;;;;29.19;50.50;99845.55;1609992;89;20166;-70
2022/05/13 12:20:23;;;;;;;;;;;;;;;29.25;50.05;99839.34;1615680;89;20479;-70
2022/05/13 12:23:00;;;;;;;;;;;;;;;29.37;49.82;99836.13;1612404;88;20144;-70
2022/05/13 12:25:31;;;;;;;;;;;;;;;29.51;48.13;99844.80;1628650;84;20136;-69
2022/05/13 12:28:08;;;;;;;;;;;;;;;29.53;44.18;99835.59;1706007;84;20129;-71
2022/05/13 12:30:36;;;;;;;;;;;;;;;29.32;44.48;99843.97;1700039;84;20151;-70
2022/05/13 12:33:25;;;;;;;;;;;;;;;29.27;43.33;99842.66;1699663;84;20115;-68
2022/05/13 12:39:11;;;;;;;;;;;;;;;29.07;40.03;99842.35;1693862;84;20120;-71
2022/05/13 12:41:45;;;;;;;;;;;;;;;28.73;41.26;99836.40;1693445;84;20135;-74
2022/05/13 12:44:24;;;;;;;;;;;;;;;28.29;40.58;99841.02;1693480;84;20138;-71
2022/05/13 12:46:52;;;;;;;;;;;;;;;27.85;41.88;99850.30;1693629;85;20111;-70
2022/05/13 12:49:35;;;;;;;;;;;;;;;27.70;41.98;99844.89;1693627;85;20123;-70
2022/05/13 12:52:05;;;;;;;;;;;;;;;27.71;42.09;99845.14;1663387;83;20108;-72
2022/05/13 12:54:48;;;;;;;;;;;;;;;27.82;42.63;99842.57;1674207;85;20117;-73
2022/05/13 12:57:18;;;;;;;;;;;;;;;27.88;40.72;99840.00;1624377;88;20174;-71
2022/05/13 12:59:47;;;;;;;;;;;;;;;27.78;39.38;99848.42;1606901;89;20171;-71
2022/05/13 13:02:14;;;;;;;;;;;;;;;27.45;40.31;99840.62;1603321;88;20194;-70
2022/05/13 13:04:57;;;;;;;;;;;;;;;27.36;40.54;99843.73;1605506;89;20161;-73
2022/05/13 13:07:27;;;;;;;;;;;;;;;27.32;40.41;99844.05;1555932;92;20159;-72
2022/05/13 13:09:55;;;;;;;;;;;;;;;27.15;40.17;99851.33;1534078;93;20139;-71
2022/05/13 13:12:42;;;;;;;;;;;;;;;27.09;41.83;99855.23;1514944;94;20135;-70
2022/05/13 13:15:18;;;;;;;;;;;;;;;27.24;41.72;99853.77;1534539;93;20127;-73
2022/05/13 13:17:56;;;;;;;;;;;;;;;27.30;42.24;99851.81;1534532;93;20121;-72
2022/05/13 13:20:24;;;;;;;;;;;;;;;27.29;40.74;99852.95;1534396;93;20129;-71
2022/05/13 13:22:53;;;;;;;;;;;;;;;27.06;41.31;99859.98;1534334;94;20126;-70
2022/05/13 13:25:29;;;;;;;;;;;;;;;26.97;41.24;99863.91;1534540;93;20115;-71
2022/05/13 13:28:01;;;;;;;;;;;;;;;26.93;40.79;99862.80;1534343;92;20156;-74
2022/05/13 13:30:29;;;;;;;;;;;;;;;26.93;41.92;99855.86;1524876;94;20135;-70
2022/05/13 13:32:56;;;;;;;;;;;;;;;26.97;41.52;99847.26;1501997;96;20154;-70
2022/05/13 13:35:41;;;;;;;;;;;;;;;26.89;40.80;99845.06;1531964;93;20226;-71